ドバイ の空港の天気 - METARとTAF

ドバイ国際空港 ( OMDB / DXB ) - アラブ首長国連邦 ドバイ
飛行場実況気象(Metar)
観測時間10/16 12:00 GST (10/16 08:00 UTC)
風向・風速南南西 2m/s
視程10km以上
天気現象
なし
気温38℃
湿度20%
気圧1013hPa
METAROMDB 160800Z 21003KT 180V260 CAVOK 38/11 Q1013 NOSIG
過去の天気等 Google飛行場航空写真 Wunderground天気予報

過去48時間のMETAR

飛行場予報(TAF)
発表時間: 10/16 09:00 GST (10/16 05:00 UTC)
予報対象時間: 16日10時 GST ~ 17日16時 GST
風向・風速南 4m/s
視程8000m
なし
16日12時 GST ~ 16日14時 GST に徐々に
風向・風速北北西 6m/s
16日19時 GST ~ 16日21時 GST に徐々に
風向・風速東 3m/s
17日6時 GST から 確率 30% で
視程4000m
天気現象煙霧
17日7時 GST ~ 17日9時 GST に徐々に
風向・風速南 5m/s
17日12時 GST ~ 17日14時 GST に徐々に
風向・風速北北西 5m/s
TAF OMDB 160500Z 1606/1712 19008KT 8000 NSC
BECMG 1608/1610 33012KT
BECMG 1615/1617 10005KT
PROB30 1702/1704 4000 HZ
BECMG 1703/1705 17010KT
BECMG 1708/1710 33010KT